Terminal Aerodrome Forecast
Issued by NWS Lake Charles, LA

Home | Current Version | Previous Version | Text Only | Print | Product List | Glossary On
Versions: 1 2 3 4 5 6 7 8 9 10 11 12 13 14 15 16 17 18
000
FTUS44 KLCH 260331 AAA
TAFBPT
TAF AMD
KBPT 260331Z 2604/2624 VRB03KT 5SM BR SCT025 BKN200
      TEMPO 2604/2608 2SM BR
     FM261200 VRB03KT P6SM VCSH SCT025 BKN250
     FM261500 VRB05KT P6SM VCTS SCT025CB BKN050 PROB30 2616/2622 2SM
      TSRA BKN025CB=

USA.gov is the U.S. government's official web portal to all federal, state and local government web resources and services.